createdAt,value
2018-05-02T00:02:12.054Z,99.90
2018-05-02T00:06:55.382Z,99.90
2018-05-02T00:11:39.489Z,99.90
2018-05-02T00:16:22.813Z,99.90
2018-05-02T00:21:07.118Z,99.90
2018-05-02T00:25:50.419Z,99.90
2018-05-02T00:30:33.795Z,99.90
2018-05-02T00:35:17.101Z,99.90
2018-05-02T00:40:00.401Z,99.90
2018-05-02T00:44:44.465Z,99.90
2018-05-02T00:49:28.590Z,99.90
2018-05-02T00:54:11.882Z,99.90
2018-05-02T00:58:55.262Z,99.90
2018-05-02T01:03:38.592Z,99.90
2018-05-02T01:08:21.966Z,99.90
2018-05-02T01:13:06.281Z,99.90
2018-05-02T01:17:49.567Z,99.90
2018-05-02T01:22:32.875Z,99.90
2018-05-02T01:27:16.195Z,99.90
2018-05-02T01:31:59.527Z,99.90
2018-05-02T01:36:43.575Z,99.90
2018-05-02T01:41:26.906Z,99.90
2018-05-02T01:46:10.960Z,99.90
2018-05-02T01:50:55.043Z,99.90
2018-05-02T01:55:38.357Z,99.90
2018-05-02T02:00:22.452Z,99.90
2018-05-02T02:05:05.759Z,99.90
2018-05-02T02:09:49.111Z,99.90
2018-05-02T02:14:33.216Z,99.90
2018-05-02T02:19:16.495Z,99.90
2018-05-02T02:23:59.845Z,99.90
2018-05-02T02:28:43.888Z,99.90
2018-05-02T02:33:27.988Z,99.90
2018-05-02T02:38:11.297Z,99.90
2018-05-02T02:42:54.631Z,99.90
2018-05-02T02:47:37.927Z,99.90
2018-05-02T02:52:21.215Z,99.90
2018-05-02T02:57:04.522Z,99.90
2018-05-02T03:01:47.864Z,99.90
2018-05-02T03:06:31.198Z,99.90
2018-05-02T03:11:14.524Z,99.90
2018-05-02T03:15:57.819Z,99.90
2018-05-02T03:20:41.150Z,99.90
2018-05-02T03:25:24.447Z,99.90
2018-05-02T03:30:07.836Z,99.90
2018-05-02T03:34:51.892Z,99.90
2018-05-02T03:39:35.172Z,99.90
2018-05-02T03:44:18.520Z,99.90
2018-05-02T03:49:01.807Z,99.90
2018-05-02T03:53:45.166Z,99.90
2018-05-02T03:58:28.494Z,99.90
2018-05-02T04:03:23.597Z,99.90
2018-05-02T04:08:07.660Z,99.90
2018-05-02T04:12:51.009Z,99.90
2018-05-02T04:17:35.029Z,99.90
2018-05-02T04:22:18.335Z,99.90
2018-05-02T04:27:01.619Z,99.90
2018-05-02T04:31:44.999Z,99.90
2018-05-02T04:36:28.379Z,99.90
2018-05-02T04:41:11.732Z,99.90
2018-05-02T04:45:55.009Z,99.90
2018-05-02T04:50:39.074Z,99.90
2018-05-02T04:55:22.401Z,99.90
2018-05-02T05:00:05.714Z,99.90
2018-05-02T05:04:49.002Z,99.90
2018-05-02T05:09:32.339Z,99.90
2018-05-02T05:14:15.660Z,99.90
2018-05-02T05:18:59.775Z,99.90
2018-05-02T05:23:43.088Z,99.90
2018-05-02T05:28:26.432Z,99.90
2018-05-02T05:33:09.771Z,99.90
2018-05-02T05:37:53.075Z,99.90
2018-05-02T05:42:37.186Z,99.90
2018-05-02T05:47:20.501Z,99.90
2018-05-02T05:52:03.817Z,99.90
2018-05-02T05:56:47.110Z,99.90
2018-05-02T06:01:30.485Z,99.90
2018-05-02T06:06:13.783Z,99.90
2018-05-02T06:10:57.121Z,99.90
2018-05-02T06:15:40.480Z,99.90
2018-05-02T06:20:23.781Z,99.90
2018-05-02T06:25:07.104Z,99.90
2018-05-02T06:29:50.414Z,99.90
2018-05-02T06:34:33.774Z,99.90
2018-05-02T06:39:17.991Z,99.90
2018-05-02T06:44:01.280Z,99.90
2018-05-02T06:48:44.676Z,99.90
2018-05-02T06:53:28.031Z,99.90
2018-05-02T06:58:11.321Z,99.90
2018-05-02T07:02:54.612Z,99.90
2018-05-02T07:07:37.998Z,99.90
2018-05-02T07:12:21.380Z,99.90
2018-05-02T07:17:04.899Z,99.90
2018-05-02T07:21:48.223Z,99.90
2018-05-02T07:26:31.575Z,99.90
2018-05-02T07:31:14.909Z,99.90
2018-05-02T07:35:58.223Z,99.90
2018-05-02T07:40:41.603Z,99.90
2018-05-02T07:45:24.955Z,99.90
2018-05-02T07:50:08.328Z,99.90
2018-05-02T07:54:51.639Z,99.90
2018-05-02T07:59:35.098Z,99.90
2018-05-02T08:04:18.404Z,99.90
2018-05-02T08:09:01.751Z,99.90
2018-05-02T08:13:45.077Z,99.90
2018-05-02T08:18:28.480Z,99.90
2018-05-02T08:23:11.769Z,99.90
2018-05-02T08:27:55.108Z,99.60
2018-05-02T08:32:38.426Z,99.90
2018-05-02T08:37:22.676Z,99.70
2018-05-02T08:42:06.270Z,98.50
2018-05-02T08:46:49.716Z,97.40
2018-05-02T08:51:33.102Z,96.60
2018-05-02T08:56:16.570Z,95.30
2018-05-02T09:00:59.899Z,94.70
2018-05-02T09:05:44.053Z,90.00
2018-05-02T09:10:27.445Z,90.00
2018-05-02T09:15:10.802Z,91.00
2018-05-02T09:19:54.966Z,81.20
2018-05-02T09:24:38.276Z,81.20
2018-05-02T09:29:22.418Z,76.30
2018-05-02T09:34:05.804Z,76.30
2018-05-02T09:38:49.164Z,76.00
2018-05-02T09:43:33.267Z,71.90
2018-05-02T09:48:16.598Z,71.90
2018-05-02T09:52:59.942Z,75.90
2018-05-02T09:57:43.431Z,74.30
2018-05-02T10:02:26.827Z,73.40
2018-05-02T10:07:10.192Z,75.20
2018-05-02T10:11:53.586Z,73.10
2018-05-02T10:16:37.704Z,70.30
2018-05-02T10:21:20.999Z,70.30
2018-05-02T10:26:04.309Z,69.20
2018-05-02T10:30:48.380Z,70.30
2018-05-02T10:35:31.690Z,71.00
2018-05-02T10:40:14.993Z,68.90
2018-05-02T10:44:58.334Z,71.60
2018-05-02T10:49:41.650Z,68.00
2018-05-02T10:54:24.987Z,68.20
2018-05-02T10:59:08.307Z,62.80
2018-05-02T11:03:52.370Z,57.20
2018-05-02T11:08:35.679Z,57.10
2018-05-02T11:13:19.047Z,57.90
2018-05-02T11:18:03.131Z,55.40
2018-05-02T11:22:46.468Z,55.30
2018-05-02T11:27:29.756Z,56.30
2018-05-02T11:32:13.100Z,55.10
2018-05-02T11:36:56.539Z,57.50
2018-05-02T11:41:39.975Z,60.40
2018-05-02T11:46:23.299Z,57.40
2018-05-02T11:51:07.450Z,61.50
2018-05-02T12:04:07.981Z,57.60
2018-05-02T12:08:51.398Z,56.50
2018-05-02T12:13:36.079Z,53.60
2018-05-02T12:18:19.433Z,55.60
2018-05-02T12:23:04.585Z,55.10
2018-05-02T12:27:48.161Z,55.80
2018-05-02T12:32:31.528Z,58.10
2018-05-02T12:37:14.886Z,58.30
2018-05-02T12:41:58.379Z,56.20
2018-05-02T12:46:42.514Z,57.70
2018-05-02T12:51:25.839Z,57.60
2018-05-02T12:56:10.276Z,58.40
2018-05-02T13:00:53.752Z,59.50
2018-05-02T13:05:37.107Z,55.90
2018-05-02T13:10:20.548Z,56.00
2018-05-02T13:15:03.838Z,53.10
2018-05-02T13:19:47.202Z,54.00
2018-05-02T13:24:30.542Z,52.30
2018-05-02T13:29:13.893Z,54.10
2018-05-02T13:33:57.271Z,53.00
2018-05-02T13:38:40.589Z,51.60
2018-05-02T13:43:23.933Z,51.10
2018-05-02T13:48:07.258Z,52.70
2018-05-02T13:52:53.241Z,51.90
2018-05-02T13:57:37.692Z,52.50
2018-05-02T14:02:21.042Z,53.50
2018-05-02T14:07:04.511Z,54.40
2018-05-02T14:11:47.976Z,52.70
2018-05-02T14:16:39.098Z,51.90
2018-05-02T14:21:25.058Z,52.30
2018-05-02T14:26:13.780Z,51.40
2018-05-02T14:30:57.512Z,53.10
2018-05-02T14:35:40.845Z,54.30
2018-05-02T14:40:24.210Z,57.10
2018-05-02T14:45:07.675Z,57.90
2018-05-02T14:49:51.075Z,58.50
2018-05-02T14:54:35.126Z,59.90
2018-05-02T15:04:55.663Z,60.70
2018-05-02T15:09:43.043Z,62.80
2018-05-02T15:14:29.329Z,65.70
2018-05-02T15:19:13.937Z,65.50
2018-05-02T15:23:59.294Z,64.80
2018-05-02T15:28:43.662Z,66.60
2018-05-02T15:33:28.474Z,67.10
2018-05-02T15:38:12.764Z,67.80
2018-05-02T15:42:56.120Z,69.90
2018-05-02T15:47:39.515Z,69.40
2018-05-02T15:52:23.681Z,72.00
2018-05-02T15:57:07.781Z,71.70
2018-05-02T16:01:51.129Z,71.70
2018-05-02T16:06:34.556Z,72.70
2018-05-02T16:11:17.918Z,73.70
2018-05-02T16:16:01.483Z,73.80
2018-05-02T16:20:45.779Z,73.80
2018-05-02T16:25:29.885Z,75.50
2018-05-02T16:30:13.197Z,75.40
2018-05-02T16:35:00.128Z,76.10
2018-05-02T16:39:44.472Z,77.50
2018-05-02T16:44:29.265Z,77.60
2018-05-02T16:49:12.565Z,78.30
2018-05-02T16:53:58.880Z,77.20
2018-05-02T17:03:41.642Z,79.20
2018-05-02T17:08:29.109Z,79.60
2018-05-02T17:13:13.347Z,80.30
2018-05-02T17:17:57.759Z,81.70
2018-05-02T17:28:03.392Z,83.40
2018-05-02T17:32:46.736Z,85.10
2018-05-02T17:37:30.056Z,86.70
2018-05-02T17:42:14.120Z,91.00
2018-05-02T17:46:57.547Z,90.90
2018-05-02T17:51:41.826Z,92.70
2018-05-02T17:56:26.079Z,93.60
2018-05-02T18:01:09.577Z,93.60
2018-05-02T18:05:52.950Z,94.10
2018-05-02T18:10:36.353Z,94.20
2018-05-02T18:15:19.730Z,94.70
2018-05-02T18:20:03.076Z,96.10
2018-05-02T18:24:47.206Z,98.00
2018-05-02T18:29:30.598Z,98.00
2018-05-02T18:34:14.106Z,98.90
2018-05-02T18:38:57.668Z,99.90
2018-05-02T18:43:41.844Z,99.90
2018-05-02T18:48:26.113Z,99.90
2018-05-02T18:53:09.503Z,99.90
2018-05-02T18:57:54.092Z,99.90
2018-05-02T19:02:39.670Z,99.90
2018-05-02T19:07:26.631Z,99.90
2018-05-02T19:12:10.909Z,99.90
2018-05-02T19:16:54.475Z,99.90
2018-05-02T19:21:45.179Z,99.90
2018-05-02T19:26:48.238Z,99.90
2018-05-02T19:31:37.735Z,99.90
2018-05-02T19:36:22.111Z,99.90
2018-05-02T19:41:11.892Z,99.90
2018-05-02T19:45:55.273Z,99.90
2018-05-02T19:50:38.787Z,99.90
2018-05-02T19:55:22.993Z,99.90
2018-05-02T20:00:06.501Z,99.90
2018-05-02T20:04:50.864Z,99.90
2018-05-02T20:09:40.640Z,99.90
2018-05-02T20:14:24.099Z,99.90
2018-05-02T20:19:07.526Z,99.90
2018-05-02T20:23:50.931Z,99.90
2018-05-02T20:28:34.317Z,99.90
2018-05-02T20:33:18.689Z,99.90
2018-05-02T20:38:02.118Z,99.90
2018-05-02T20:42:45.465Z,99.90
2018-05-02T20:47:28.938Z,99.90
2018-05-02T20:52:12.455Z,99.90
2018-05-02T20:56:56.633Z,99.90
2018-05-02T21:01:40.940Z,99.90
2018-05-02T21:06:24.505Z,99.90
2018-05-02T21:11:08.666Z,99.90
2018-05-02T21:15:52.030Z,99.90
2018-05-02T21:20:36.225Z,99.90
2018-05-02T21:25:20.510Z,99.90
2018-05-02T21:30:03.912Z,99.90
2018-05-02T21:34:47.304Z,99.90
2018-05-02T21:39:30.680Z,99.90
2018-05-02T21:44:14.961Z,99.90
2018-05-02T21:48:58.318Z,99.90
2018-05-02T21:53:41.668Z,99.90
2018-05-02T21:58:25.005Z,99.90
2018-05-02T22:03:08.371Z,99.90
2018-05-02T22:07:52.743Z,99.90
2018-05-02T22:12:36.127Z,99.90
2018-05-02T22:17:19.506Z,99.90
2018-05-02T22:22:02.861Z,99.90
2018-05-02T22:26:46.202Z,99.90
2018-05-02T22:31:29.553Z,99.90
2018-05-02T22:36:13.874Z,99.90
2018-05-02T22:40:57.400Z,99.90
2018-05-02T22:45:40.873Z,99.90
2018-05-02T22:50:25.269Z,99.90
2018-05-02T22:55:08.786Z,99.90
2018-05-02T22:59:52.159Z,99.90
2018-05-02T23:04:35.784Z,99.90
2018-05-02T23:09:19.143Z,99.90
2018-05-02T23:14:02.475Z,99.90
2018-05-02T23:18:45.883Z,99.90
2018-05-02T23:23:29.244Z,99.90
2018-05-02T23:28:12.600Z,99.90
2018-05-02T23:32:56.672Z,99.90
2018-05-02T23:37:40.122Z,99.90
2018-05-02T23:42:24.255Z,99.90
2018-05-02T23:47:07.636Z,99.90
2018-05-02T23:51:51.718Z,99.90
2018-05-02T23:56:35.083Z,99.90
